createdAt,value
2022-11-19T00:03:01.280Z,6.30
2022-11-19T00:08:06.693Z,6.63
2022-11-19T00:13:10.852Z,7.82
2022-11-19T00:18:14.364Z,7.35
2022-11-19T00:23:19.356Z,6.68
2022-11-19T00:28:22.946Z,9.20
2022-11-19T00:33:26.421Z,5.82
2022-11-19T00:38:32.663Z,6.20
2022-11-19T00:43:48.540Z,4.68
2022-11-19T00:48:55.321Z,6.32
2022-11-19T00:54:00.435Z,6.50
2022-11-19T00:59:03.960Z,6.78
2022-11-19T01:04:07.515Z,6.20
2022-11-19T01:09:12.933Z,5.53
2022-11-19T01:14:16.601Z,6.05
2022-11-19T01:19:20.407Z,6.63
2022-11-19T01:24:25.718Z,8.05
2022-11-19T01:29:29.352Z,4.40
2022-11-19T01:34:33.195Z,6.15
2022-11-19T01:39:38.217Z,5.50
2022-11-19T01:45:05.522Z,5.45
2022-11-19T01:50:09.791Z,5.10
2022-11-19T01:55:15.268Z,6.50
2022-11-19T02:00:19.514Z,4.47
2022-11-19T02:05:24.389Z,6.60
2022-11-19T02:10:44.123Z,6.38
2022-11-19T02:15:55.361Z,5.75
2022-11-19T02:21:21.011Z,5.25
2022-11-19T02:27:28.699Z,5.07
2022-11-19T02:32:38.384Z,5.07
2022-11-19T02:37:53.322Z,4.75
2022-11-19T02:43:11.887Z,5.63
2022-11-19T02:48:24.266Z,5.18
2022-11-19T02:53:27.868Z,4.47
2022-11-19T02:58:51.615Z,8.38
2022-11-19T03:04:14.547Z,4.45
2022-11-19T03:09:19.261Z,5.40
2022-11-19T03:14:48.835Z,4.28
2022-11-19T03:20:04.470Z,5.53
2022-11-19T03:25:14.925Z,4.85
2022-11-19T03:30:20.025Z,5.68
2022-11-19T03:35:30.481Z,5.25
2022-11-19T03:40:35.422Z,5.07
2022-11-19T03:45:46.071Z,5.30
2022-11-19T03:50:56.226Z,4.38
2022-11-19T03:56:04.267Z,4.28
2022-11-19T04:01:08.737Z,4.55
2022-11-19T04:06:13.682Z,5.20
2022-11-19T04:16:34.504Z,5.30
2022-11-19T04:21:39.570Z,6.55
2022-11-19T04:26:43.253Z,4.40
2022-11-19T04:31:46.872Z,5.88
2022-11-19T04:36:51.897Z,6.28
2022-11-19T04:41:55.454Z,3.75
2022-11-19T04:46:59.710Z,4.72
2022-11-19T04:52:05.092Z,5.63
2022-11-19T04:57:08.587Z,5.60
2022-11-19T05:02:12.088Z,4.32
2022-11-19T05:07:17.263Z,6.07
2022-11-19T05:12:20.833Z,4.05
2022-11-19T05:17:24.409Z,4.78
2022-11-19T05:22:29.422Z,4.25
2022-11-19T05:27:33.150Z,3.58
2022-11-19T05:32:37.421Z,3.17
2022-11-19T05:37:42.488Z,4.22
2022-11-19T05:42:46.201Z,6.65
2022-11-19T05:47:55.968Z,5.43
2022-11-19T05:53:01.082Z,3.60
2022-11-19T05:58:04.756Z,3.72
2022-11-19T06:03:08.421Z,4.32
2022-11-19T06:08:13.382Z,3.95
2022-11-19T06:13:17.785Z,6.03
2022-11-19T06:18:21.489Z,8.73
2022-11-19T06:23:26.466Z,3.90
2022-11-19T06:28:30.186Z,4.93
2022-11-19T06:33:33.723Z,4.97
2022-11-19T06:38:38.736Z,4.95
2022-11-19T06:43:43.150Z,3.97
2022-11-19T06:48:46.740Z,3.10
2022-11-19T06:53:51.727Z,3.63
2022-11-19T06:58:58.592Z,3.42
2022-11-19T07:04:02.213Z,3.87
2022-11-19T07:09:07.160Z,4.70
2022-11-19T07:14:10.824Z,3.75
2022-11-19T07:19:14.464Z,3.08
2022-11-19T07:24:19.752Z,2.92
2022-11-19T07:29:23.659Z,6.60
2022-11-19T07:34:27.343Z,3.42
2022-11-19T07:39:32.248Z,3.20
2022-11-19T07:44:35.926Z,4.72
2022-11-19T07:49:39.528Z,2.88
2022-11-19T07:54:44.630Z,3.72
2022-11-19T07:59:48.173Z,10.05
2022-11-19T08:04:51.780Z,11.15
2022-11-19T08:09:56.722Z,6.70
2022-11-19T08:15:00.744Z,4.85
2022-11-19T08:20:05.114Z,8.65
2022-11-19T08:25:10.754Z,8.07
2022-11-19T08:30:16.106Z,7.30
2022-11-19T08:35:19.831Z,10.95
2022-11-19T08:40:25.929Z,15.80
2022-11-19T08:45:32.549Z,13.57
2022-11-19T08:50:36.366Z,10.88
2022-11-19T08:55:41.478Z,8.35
2022-11-19T09:00:45.556Z,9.98
2022-11-19T09:05:49.444Z,9.45
2022-11-19T09:10:54.306Z,6.68
2022-11-19T09:15:57.908Z,7.78
2022-11-19T09:21:01.662Z,7.05
2022-11-19T09:26:09.751Z,6.38
2022-11-19T09:31:16.374Z,7.40
2022-11-19T09:36:21.271Z,7.28
2022-11-19T09:41:45.668Z,8.23
2022-11-19T09:47:03.022Z,9.20
2022-11-19T09:52:11.953Z,7.57
2022-11-19T09:57:25.515Z,6.13
2022-11-19T10:02:30.439Z,8.15
2022-11-19T10:07:46.160Z,6.32
2022-11-19T10:13:13.931Z,6.10
2022-11-19T10:18:29.795Z,6.05
2022-11-19T10:23:51.377Z,6.07
2022-11-19T10:28:59.416Z,5.72
2022-11-19T10:34:14.747Z,4.90
2022-11-19T10:39:28.308Z,5.65
2022-11-19T10:44:41.298Z,4.72
2022-11-19T10:49:45.617Z,5.63
2022-11-19T10:54:50.074Z,5.57
2022-11-19T10:59:56.427Z,6.38
2022-11-19T11:05:10.804Z,4.88
2022-11-19T11:10:34.996Z,4.63
2022-11-19T11:15:47.307Z,4.85
2022-11-19T11:20:53.008Z,4.47
2022-11-19T11:26:05.629Z,4.20
2022-11-19T11:31:12.736Z,5.63
2022-11-19T11:36:21.648Z,6.77
2022-11-19T11:42:05.556Z,3.75
2022-11-19T11:47:12.606Z,5.72
2022-11-19T11:52:21.362Z,5.60
2022-11-19T11:57:29.749Z,5.82
2022-11-19T12:02:37.170Z,6.80
2022-11-19T12:08:05.604Z,6.50
2022-11-19T12:13:58.523Z,4.65
2022-11-19T12:19:26.189Z,4.03
2022-11-19T12:30:05.640Z,5.93
2022-11-19T12:35:44.883Z,6.03
2022-11-19T12:41:09.152Z,5.60
2022-11-19T12:46:22.250Z,5.18
2022-11-19T12:51:44.032Z,5.40
2022-11-19T12:57:05.596Z,5.65
2022-11-19T13:02:20.962Z,4.67
2022-11-19T13:07:31.933Z,4.60
2022-11-19T13:12:42.756Z,3.60
2022-11-19T13:17:52.743Z,4.53
2022-11-19T13:23:04.699Z,4.90
2022-11-19T13:28:22.540Z,4.70
2022-11-19T13:33:33.797Z,3.42
2022-11-19T13:38:48.255Z,5.13
2022-11-19T13:44:09.674Z,3.72
2022-11-19T13:49:21.283Z,4.50
2022-11-19T13:54:31.189Z,4.82
2022-11-19T13:59:40.386Z,4.88
2022-11-19T14:05:33.522Z,4.57
2022-11-19T14:10:46.858Z,5.63
2022-11-19T14:16:26.952Z,3.55
2022-11-19T14:22:06.408Z,3.75
2022-11-19T14:27:21.463Z,4.18
2022-11-19T14:32:45.322Z,3.15
2022-11-19T14:37:54.213Z,4.32
2022-11-19T14:43:45.956Z,3.90
2022-11-19T14:48:53.507Z,4.00
2022-11-19T14:54:06.296Z,4.80
2022-11-19T14:59:23.282Z,3.47
2022-11-19T15:04:37.639Z,4.10
2022-11-19T15:10:22.402Z,3.53
2022-11-19T15:15:52.107Z,4.03
2022-11-19T15:21:17.362Z,4.05
2022-11-19T15:26:30.000Z,3.58
2022-11-19T15:32:05.368Z,3.28
2022-11-19T15:37:15.927Z,3.72
2022-11-19T15:42:31.009Z,4.65
2022-11-19T15:47:45.428Z,3.95
2022-11-19T15:53:00.861Z,2.83
2022-11-19T15:58:14.549Z,4.10
2022-11-19T16:03:20.355Z,2.67
2022-11-19T16:08:24.067Z,4.18
2022-11-19T16:13:46.361Z,4.38
2022-11-19T16:18:53.688Z,3.75
2022-11-19T16:24:15.120Z,4.05
2022-11-19T16:29:22.088Z,5.90
2022-11-19T16:34:31.357Z,6.45
2022-11-19T16:39:37.187Z,5.60
2022-11-19T16:44:40.953Z,20.42
2022-11-19T16:50:03.206Z,18.02
2022-11-19T16:55:40.441Z,14.70
2022-11-19T17:00:50.314Z,13.50
2022-11-19T17:05:56.003Z,13.45
2022-11-19T17:11:38.814Z,9.98
2022-11-19T17:16:48.788Z,12.75
2022-11-19T17:21:59.618Z,14.73
2022-11-19T17:27:03.503Z,21.23
2022-11-19T17:32:07.291Z,19.30
2022-11-19T17:37:12.423Z,15.18
2022-11-19T17:42:33.840Z,10.65
2022-11-19T17:47:37.568Z,13.45
2022-11-19T17:52:42.498Z,13.90
2022-11-19T17:57:46.169Z,11.18
2022-11-19T18:02:50.761Z,11.07
2022-11-19T18:07:55.763Z,12.20
2022-11-19T18:12:59.578Z,8.90
2022-11-19T18:18:03.565Z,8.48
2022-11-19T18:33:52.042Z,8.63
2022-11-19T18:38:56.983Z,6.40
2022-11-19T18:44:18.382Z,7.35
2022-11-19T18:49:22.172Z,5.70
2022-11-19T18:54:27.373Z,6.93
2022-11-19T18:59:31.212Z,8.30
2022-11-19T19:04:34.869Z,7.32
2022-11-19T19:09:40.861Z,5.95
2022-11-19T19:14:45.404Z,6.35
2022-11-19T19:19:49.845Z,4.72
2022-11-19T19:24:58.181Z,4.80
2022-11-19T19:30:02.541Z,5.30
2022-11-19T19:35:08.235Z,5.75
2022-11-19T19:40:15.553Z,4.63
2022-11-19T19:45:19.196Z,4.47
2022-11-19T19:50:22.945Z,6.80
2022-11-19T19:55:28.604Z,4.15
2022-11-19T20:00:32.358Z,4.18
2022-11-19T20:05:35.992Z,3.88
2022-11-19T20:10:41.077Z,4.10
2022-11-19T20:15:44.586Z,3.53
2022-11-19T20:20:48.212Z,6.20
2022-11-19T20:25:58.469Z,4.53
2022-11-19T20:31:07.581Z,4.25
2022-11-19T20:36:14.819Z,5.07
2022-11-19T20:41:40.444Z,5.18
2022-11-19T20:46:44.492Z,5.07
2022-11-19T20:51:48.509Z,5.30
2022-11-19T20:56:55.724Z,4.03
2022-11-19T21:01:59.592Z,5.75
2022-11-19T21:07:03.844Z,4.70
2022-11-19T21:12:09.311Z,5.65
2022-11-19T21:17:12.835Z,4.95
2022-11-19T21:22:16.395Z,5.82
2022-11-19T21:27:21.375Z,8.20
2022-11-19T21:32:25.439Z,4.03
2022-11-19T21:37:29.171Z,5.95
2022-11-19T21:42:34.182Z,5.25
2022-11-19T21:47:38.005Z,4.53
2022-11-19T21:52:41.766Z,6.00
2022-11-19T21:57:46.831Z,5.57
2022-11-19T22:02:50.680Z,5.47
2022-11-19T22:07:54.996Z,6.03
2022-11-19T22:13:00.874Z,5.88
2022-11-19T22:18:04.530Z,5.78
2022-11-19T22:23:08.365Z,5.53
2022-11-19T22:28:13.350Z,11.30
2022-11-19T22:33:16.978Z,9.85
2022-11-19T22:38:20.622Z,15.05
2022-11-19T22:43:25.528Z,9.88
2022-11-19T22:48:31.781Z,9.98
2022-11-19T22:53:36.589Z,8.52
2022-11-19T22:58:42.549Z,9.27
2022-11-19T23:03:46.860Z,8.90
2022-11-19T23:08:51.300Z,9.82
2022-11-19T23:13:56.141Z,7.70
2022-11-19T23:18:59.864Z,9.40
2022-11-19T23:24:03.416Z,8.80
2022-11-19T23:29:09.163Z,9.25
2022-11-19T23:34:12.743Z,7.95
2022-11-19T23:39:18.821Z,10.55
2022-11-19T23:44:23.995Z,10.52
2022-11-19T23:49:27.587Z,10.07
2022-11-19T23:54:31.106Z,10.02
2022-11-19T23:59:37.061Z,10.05
